createdAt,value
2022-08-04T00:00:17.803Z,0
2022-08-04T00:01:18.318Z,0
2022-08-04T00:02:18.372Z,0
2022-08-04T00:03:18.881Z,0
2022-08-04T00:04:19.077Z,0
2022-08-04T00:05:18.979Z,0
2022-08-04T00:06:19.879Z,0
2022-08-04T00:07:21.031Z,0
2022-08-04T00:08:21.401Z,0
2022-08-04T00:09:21.720Z,0
2022-08-04T00:10:22.032Z,0
2022-08-04T00:11:26.687Z,0
2022-08-04T00:12:22.883Z,0
2022-08-04T00:13:23.489Z,0
2022-08-04T00:14:23.400Z,0
2022-08-04T00:15:27.665Z,0
2022-08-04T00:16:24.884Z,0
2022-08-04T00:17:26.810Z,0
2022-08-04T00:18:26.311Z,0
2022-08-04T00:19:26.808Z,0
2022-08-04T00:20:27.266Z,0
2022-08-04T00:21:27.190Z,0
2022-08-04T00:22:28.091Z,0
2022-08-04T00:23:28.289Z,0
2022-08-04T00:24:27.764Z,0
2022-08-04T00:25:28.372Z,0
2022-08-04T00:26:31.655Z,0
2022-08-04T00:27:29.312Z,0
2022-08-04T00:28:30.540Z,0
2022-08-04T00:29:30.158Z,0
2022-08-04T00:30:31.454Z,0
2022-08-04T00:32:05.492Z,0
2022-08-04T00:32:45.580Z,0
2022-08-04T00:33:33.779Z,0
2022-08-04T00:34:34.131Z,0
2022-08-04T00:35:35.334Z,0
2022-08-04T00:36:36.255Z,0
2022-08-04T00:37:36.459Z,0
2022-08-04T00:38:37.369Z,0
2022-08-04T00:39:37.678Z,0
2022-08-04T00:40:40.443Z,0
2022-08-04T00:41:40.514Z,0
2022-08-04T00:42:49.444Z,0
2022-08-04T00:43:40.384Z,0
2022-08-04T00:44:40.308Z,0
2022-08-04T00:46:23.423Z,0
2022-08-04T00:46:40.037Z,0
2022-08-04T00:47:40.937Z,0
2022-08-04T00:48:42.443Z,0
2022-08-04T00:49:42.792Z,0
2022-08-04T00:50:43.812Z,0
2022-08-04T00:51:45.030Z,0
2022-08-04T00:52:45.567Z,0
2022-08-04T00:53:56.054Z,0
2022-08-04T00:54:46.255Z,0
2022-08-04T00:55:47.333Z,0
2022-08-04T00:56:48.530Z,0
2022-08-04T00:57:49.262Z,0
2022-08-04T00:58:49.480Z,0
2022-08-04T00:59:49.129Z,0
2022-08-04T01:00:49.579Z,0
2022-08-04T01:01:50.752Z,0
2022-08-04T01:02:51.154Z,0
2022-08-04T01:03:52.368Z,0
2022-08-04T01:04:52.057Z,0
2022-08-04T01:05:53.325Z,0
2022-08-04T01:07:01.938Z,0
2022-08-04T01:07:54.157Z,0
2022-08-04T01:08:54.658Z,0
2022-08-04T01:09:54.663Z,0
2022-08-04T01:10:54.679Z,0
2022-08-04T01:12:08.524Z,0
2022-08-04T01:12:56.020Z,0
2022-08-04T01:13:56.229Z,0
2022-08-04T01:14:56.452Z,0
2022-08-04T01:16:12.029Z,0
2022-08-04T01:16:56.954Z,0
2022-08-04T01:17:57.898Z,0
2022-08-04T01:18:59.102Z,0
2022-08-04T01:19:59.019Z,0
2022-08-04T01:20:58.862Z,0
2022-08-04T01:21:59.505Z,0
2022-08-04T01:23:00.407Z,0
2022-08-04T01:24:01.343Z,0
2022-08-04T01:25:02.271Z,0
2022-08-04T01:26:02.610Z,0
2022-08-04T01:27:10.742Z,0
2022-08-04T01:28:05.418Z,0
2022-08-04T01:29:06.188Z,0
2022-08-04T01:30:06.550Z,0
2022-08-04T01:31:05.590Z,0
2022-08-04T01:32:05.849Z,0
2022-08-04T01:33:06.748Z,0
2022-08-04T01:34:14.782Z,0
2022-08-04T01:35:07.992Z,0
2022-08-04T01:36:08.988Z,0
2022-08-04T01:37:09.015Z,0
2022-08-04T01:38:27.598Z,0
2022-08-04T01:39:08.940Z,0
2022-08-04T01:40:10.232Z,0
2022-08-04T01:41:10.670Z,0
2022-08-04T01:42:18.750Z,0
2022-08-04T01:43:12.777Z,0
2022-08-04T01:44:12.690Z,0
2022-08-04T01:45:14.193Z,0
2022-08-04T01:46:14.388Z,0
2022-08-04T01:47:14.312Z,0
2022-08-04T01:48:14.851Z,0
2022-08-04T01:49:15.489Z,0
2022-08-04T01:50:16.475Z,0
2022-08-04T01:51:16.318Z,0
2022-08-04T01:52:17.246Z,0
2022-08-04T01:53:17.445Z,0
2022-08-04T01:54:17.088Z,0
2022-08-04T01:55:18.076Z,0
2022-08-04T01:56:18.270Z,0
2022-08-04T01:57:49.952Z,0
2022-08-04T01:58:19.594Z,0
2022-08-04T01:59:20.543Z,0
2022-08-04T02:00:21.040Z,0
2022-08-04T02:01:22.210Z,0
2022-08-04T02:02:23.597Z,0
2022-08-04T02:03:23.420Z,0
2022-08-04T02:04:37.724Z,0
2022-08-04T02:06:15.036Z,0
2022-08-04T02:06:38.234Z,0
2022-08-04T02:07:38.857Z,0
2022-08-04T02:08:39.797Z,0
2022-08-04T02:10:00.815Z,0
2022-08-04T02:10:41.115Z,0
2022-08-04T02:11:41.853Z,0
2022-08-04T02:12:42.352Z,0
2022-08-04T02:13:42.551Z,0
2022-08-04T02:14:42.471Z,0
2022-08-04T02:15:45.160Z,0
2022-08-04T02:16:44.664Z,0
2022-08-04T02:17:44.890Z,0
2022-08-04T02:18:45.089Z,0
2022-08-04T02:19:45.288Z,0
2022-08-04T02:20:45.206Z,0
2022-08-04T02:21:54.020Z,0
2022-08-04T02:22:47.241Z,0
2022-08-04T02:23:47.804Z,0
2022-08-04T02:24:48.727Z,0
2022-08-04T02:25:49.641Z,0
2022-08-04T02:26:50.546Z,0
2022-08-04T02:28:12.214Z,0
2022-08-04T02:28:51.129Z,0
2022-08-04T02:29:52.048Z,0
2022-08-04T02:30:51.948Z,0
2022-08-04T02:31:53.292Z,0
2022-08-04T02:32:54.198Z,0
2022-08-04T02:33:55.145Z,0
2022-08-04T02:34:56.851Z,0
2022-08-04T02:35:57.049Z,0
2022-08-04T02:36:58.008Z,0
2022-08-04T02:37:57.940Z,0
2022-08-04T02:38:58.369Z,0
2022-08-04T02:40:00.199Z,0
2022-08-04T02:41:04.736Z,0
2022-08-04T02:41:59.466Z,0
2022-08-04T02:43:00.409Z,0
2022-08-04T02:44:04.229Z,0
2022-08-04T02:45:03.633Z,0
2022-08-04T02:46:03.133Z,0
2022-08-04T02:47:03.460Z,0
2022-08-04T02:48:41.023Z,0
2022-08-04T02:49:05.222Z,0
2022-08-04T02:50:08.907Z,0
2022-08-04T02:51:05.632Z,0
2022-08-04T02:52:06.917Z,0
2022-08-04T02:53:08.862Z,0
2022-08-04T02:54:08.448Z,0
2022-08-04T02:55:08.662Z,0
2022-08-04T02:56:08.880Z,0
2022-08-04T02:57:14.030Z,0
2022-08-04T02:58:09.070Z,0
2022-08-04T02:59:10.444Z,0
2022-08-04T03:00:11.373Z,0
2022-08-04T03:01:11.906Z,0
2022-08-04T03:02:11.958Z,0
2022-08-04T03:03:13.109Z,0
2022-08-04T03:04:16.251Z,0
2022-08-04T03:05:14.781Z,0
2022-08-04T03:06:21.230Z,0
2022-08-04T03:07:21.975Z,0
2022-08-04T03:08:16.264Z,0
2022-08-04T03:09:16.792Z,0
2022-08-04T03:10:17.431Z,0
2022-08-04T03:11:19.019Z,0
2022-08-04T03:12:19.742Z,0
2022-08-04T03:13:20.946Z,0
2022-08-04T03:14:21.421Z,0
2022-08-04T03:15:22.760Z,0
2022-08-04T03:16:22.256Z,0
2022-08-04T03:17:23.681Z,0
2022-08-04T03:18:23.919Z,0
2022-08-04T03:19:23.878Z,0
2022-08-04T03:20:24.797Z,0
2022-08-04T03:21:25.718Z,0
2022-08-04T03:22:26.460Z,0
2022-08-04T03:23:27.085Z,0
2022-08-04T03:24:31.024Z,0
2022-08-04T03:25:28.243Z,0
2022-08-04T03:26:28.141Z,0
2022-08-04T03:27:29.434Z,0
2022-08-04T03:28:30.374Z,0
2022-08-04T03:29:47.767Z,0
2022-08-04T03:30:31.991Z,0
2022-08-04T03:31:32.893Z,0
2022-08-04T03:32:33.181Z,0
2022-08-04T03:33:33.672Z,4
2022-08-04T03:34:34.163Z,4
2022-08-04T03:35:34.204Z,0
2022-08-04T03:36:42.403Z,0
2022-08-04T03:37:35.326Z,4
2022-08-04T03:38:35.525Z,4
2022-08-04T03:39:36.808Z,0
2022-08-04T03:40:37.501Z,4
2022-08-04T03:42:21.554Z,4
2022-08-04T03:43:09.872Z,4
2022-08-04T03:44:14.472Z,8
2022-08-04T03:45:34.392Z,4
2022-08-04T03:46:15.892Z,8
2022-08-04T03:47:16.399Z,8
2022-08-04T03:48:17.293Z,8
2022-08-04T03:49:17.216Z,8
2022-08-04T03:50:16.836Z,8
2022-08-04T03:51:41.939Z,8
2022-08-04T03:52:18.586Z,12
2022-08-04T03:53:18.735Z,12
2022-08-04T03:54:19.950Z,16
2022-08-04T03:55:20.450Z,16
2022-08-04T03:56:20.642Z,16
2022-08-04T03:57:22.614Z,20
2022-08-04T03:58:21.677Z,20
2022-08-04T03:59:22.633Z,24
2022-08-04T04:00:22.829Z,24
2022-08-04T04:01:25.045Z,28
2022-08-04T04:02:23.530Z,28
2022-08-04T04:03:39.640Z,28
2022-08-04T04:04:25.765Z,32
2022-08-04T04:05:26.661Z,36
2022-08-04T04:06:27.060Z,36
2022-08-04T04:07:41.225Z,40
2022-08-04T04:08:30.936Z,40
2022-08-04T04:09:28.728Z,44
2022-08-04T04:10:34.360Z,44
2022-08-04T04:11:27.910Z,52
2022-08-04T04:12:28.794Z,52
2022-08-04T04:13:29.501Z,52
2022-08-04T04:14:29.725Z,56
2022-08-04T04:15:30.052Z,60
2022-08-04T04:16:30.971Z,60
2022-08-04T04:17:31.938Z,64
2022-08-04T04:18:31.833Z,68
2022-08-04T04:19:31.749Z,72
2022-08-04T04:20:33.251Z,72
2022-08-04T04:21:32.857Z,72
2022-08-04T04:22:38.029Z,76
2022-08-04T04:23:34.845Z,80
2022-08-04T04:24:43.835Z,80
2022-08-04T04:25:36.033Z,84
2022-08-04T04:26:35.952Z,88
2022-08-04T04:27:36.854Z,88
2022-08-04T04:28:58.552Z,92
2022-08-04T04:29:38.645Z,96
2022-08-04T04:30:39.144Z,96
2022-08-04T04:31:39.652Z,100
2022-08-04T04:32:40.153Z,104
2022-08-04T04:33:40.145Z,104
2022-08-04T04:34:45.623Z,108
2022-08-04T04:35:42.041Z,108
2022-08-04T04:36:42.279Z,112
2022-08-04T04:37:47.640Z,116
2022-08-04T04:38:43.130Z,116
2022-08-04T04:39:43.927Z,120
2022-08-04T04:40:43.837Z,124
2022-08-04T04:41:44.563Z,124
2022-08-04T04:42:45.488Z,128
2022-08-04T04:44:04.567Z,128
2022-08-04T04:45:04.811Z,132
2022-08-04T04:46:05.003Z,136
2022-08-04T04:47:06.390Z,140
2022-08-04T04:48:21.430Z,144
2022-08-04T04:49:07.360Z,144
2022-08-04T04:50:07.384Z,144
2022-08-04T04:51:08.589Z,148
2022-08-04T04:52:09.805Z,152
2022-08-04T04:53:09.724Z,156
2022-08-04T04:54:12.086Z,160
2022-08-04T04:55:11.287Z,164
2022-08-04T04:56:11.789Z,168
2022-08-04T04:57:12.179Z,176
2022-08-04T04:58:13.404Z,176
2022-08-04T04:59:13.833Z,184
2022-08-04T05:00:14.738Z,188
2022-08-04T05:01:15.653Z,192
2022-08-04T05:02:16.149Z,196
2022-08-04T05:03:20.499Z,200
2022-08-04T05:04:16.960Z,200
2022-08-04T05:05:17.161Z,208
2022-08-04T05:06:18.057Z,212
2022-08-04T05:07:18.889Z,220
2022-08-04T05:09:00.197Z,232
2022-08-04T05:09:19.697Z,232
2022-08-04T05:10:19.625Z,236
2022-08-04T05:11:20.129Z,240
2022-08-04T05:14:47.620Z,260
2022-08-04T05:15:04.543Z,256
2022-08-04T05:17:07.108Z,268
2022-08-04T05:18:07.772Z,268
2022-08-04T05:19:07.693Z,276
2022-08-04T05:20:08.979Z,280
2022-08-04T05:21:08.882Z,280
2022-08-04T05:22:12.546Z,284
2022-08-04T05:23:09.283Z,288
2022-08-04T05:24:10.186Z,292
2022-08-04T05:25:10.411Z,296
2022-08-04T05:26:12.308Z,304
2022-08-04T05:27:14.135Z,304
2022-08-04T05:28:12.458Z,308
2022-08-04T05:29:13.662Z,312
2022-08-04T05:30:14.596Z,316
2022-08-04T05:31:14.791Z,320
2022-08-04T05:32:16.009Z,324
2022-08-04T05:33:15.944Z,328
2022-08-04T05:34:17.150Z,332
2022-08-04T05:35:37.506Z,336
2022-08-04T05:37:23.244Z,344
2022-08-04T05:38:24.155Z,348
2022-08-04T05:39:25.400Z,352
2022-08-04T05:40:26.230Z,352
2022-08-04T05:41:32.475Z,356
2022-08-04T05:42:29.119Z,360
2022-08-04T05:43:27.324Z,364
2022-08-04T05:44:27.827Z,368
2022-08-04T05:45:28.026Z,368
2022-08-04T05:46:28.159Z,372
2022-08-04T05:47:29.497Z,372
2022-08-04T05:48:29.695Z,380
2022-08-04T05:49:33.701Z,384
2022-08-04T05:50:30.906Z,384
2022-08-04T05:51:30.931Z,392
2022-08-04T05:52:31.858Z,396
2022-08-04T05:53:32.356Z,400
2022-08-04T05:54:32.557Z,392
2022-08-04T05:56:09.323Z,404
2022-08-04T05:56:34.233Z,408
2022-08-04T05:57:35.189Z,408
2022-08-04T05:58:35.156Z,416
2022-08-04T05:59:35.351Z,420
2022-08-04T06:00:58.341Z,424
2022-08-04T06:01:55.205Z,428
2022-08-04T06:02:37.207Z,436
2022-08-04T06:03:37.430Z,436
2022-08-04T06:04:38.351Z,440
2022-08-04T06:05:38.005Z,448
2022-08-04T06:06:40.069Z,444
2022-08-04T06:08:04.813Z,456
2022-08-04T06:08:39.484Z,460
2022-08-04T06:09:39.979Z,468
2022-08-04T06:10:41.450Z,468
2022-08-04T06:12:10.023Z,476
2022-08-04T06:12:41.523Z,476
2022-08-04T06:14:01.437Z,484
2022-08-04T06:14:42.362Z,484
2022-08-04T06:15:51.956Z,496
2022-08-04T06:16:49.454Z,496
2022-08-04T06:20:29.887Z,516
2022-08-04T06:21:31.885Z,524
2022-08-04T06:22:34.329Z,532
2022-08-04T06:23:32.550Z,528
2022-08-04T06:24:33.010Z,532
2022-08-04T06:25:34.222Z,536
2022-08-04T06:26:34.531Z,540
2022-08-04T06:27:35.459Z,548
2022-08-04T06:28:41.140Z,552
2022-08-04T06:29:37.100Z,560
2022-08-04T06:30:37.721Z,568
2022-08-04T06:32:47.617Z,580
2022-08-04T06:33:16.466Z,580
2022-08-04T06:34:15.698Z,588
2022-08-04T06:35:16.334Z,596
2022-08-04T06:36:17.829Z,600
2022-08-04T06:37:49.823Z,612
2022-08-04T06:38:21.175Z,612
2022-08-04T06:39:19.667Z,616
2022-08-04T06:40:41.009Z,628
2022-08-04T06:41:19.505Z,632
2022-08-04T06:42:33.075Z,640
2022-08-04T06:43:21.576Z,636
2022-08-04T06:44:25.987Z,644
2022-08-04T06:45:22.472Z,648
2022-08-04T06:46:22.421Z,656
2022-08-04T06:47:26.028Z,664
2022-08-04T06:48:22.657Z,668
2022-08-04T06:49:23.361Z,672
2022-08-04T06:51:55.175Z,684
2022-08-04T06:52:12.671Z,684
2022-08-04T06:53:12.997Z,692
2022-08-04T06:54:13.049Z,692
2022-08-04T06:55:14.548Z,692
2022-08-04T06:56:14.480Z,708
2022-08-04T06:57:15.683Z,712
2022-08-04T06:58:16.492Z,720
2022-08-04T06:59:16.424Z,720
2022-08-04T07:00:16.560Z,724
2022-08-04T07:01:17.672Z,728
2022-08-04T07:02:18.448Z,736
2022-08-04T07:03:18.792Z,740
2022-08-04T07:04:19.999Z,748
2022-08-04T07:05:20.925Z,748
2022-08-04T07:06:25.974Z,756
2022-08-04T07:07:34.147Z,772
2022-08-04T07:08:22.909Z,980
2022-08-04T07:09:22.977Z,912
2022-08-04T07:10:33.143Z,1164
2022-08-04T07:11:24.648Z,1200
2022-08-04T07:12:25.240Z,1316
2022-08-04T07:13:25.573Z,1460
2022-08-04T07:14:25.623Z,1528
2022-08-04T07:15:26.272Z,1488
2022-08-04T07:16:36.373Z,1744
2022-08-04T07:17:40.224Z,1784
2022-08-04T07:18:29.188Z,1724
2022-08-04T07:19:30.656Z,1688
2022-08-04T07:20:46.301Z,1664
2022-08-04T07:21:29.950Z,1640
2022-08-04T07:22:36.953Z,1548
2022-08-04T07:23:31.094Z,1588
2022-08-04T07:24:31.692Z,1536
2022-08-04T07:26:19.019Z,1576
2022-08-04T07:26:35.647Z,1552
2022-08-04T07:27:59.293Z,1528
2022-08-04T07:28:37.826Z,1516
2022-08-04T07:29:38.069Z,1508
2022-08-04T07:30:38.266Z,1640
2022-08-04T07:31:45.642Z,1652
2022-08-04T07:32:38.897Z,1600
2022-08-04T07:33:39.632Z,1544
2022-08-04T07:34:47.783Z,1360
2022-08-04T07:36:20.077Z,1500
2022-08-04T07:37:00.534Z,1468
2022-08-04T07:37:51.561Z,1404
2022-08-04T07:38:56.975Z,1304
2022-08-04T07:39:58.914Z,1260
2022-08-04T07:40:44.655Z,1268
2022-08-04T07:41:54.120Z,1256
2022-08-04T07:42:44.942Z,1232
2022-08-04T07:43:45.934Z,1280
2022-08-04T07:44:50.615Z,1292
2022-08-04T07:45:46.666Z,1524
2022-08-04T07:46:48.175Z,1716
2022-08-04T07:48:11.458Z,1928
2022-08-04T07:48:48.385Z,1984
2022-08-04T07:50:06.968Z,1584
2022-08-04T07:50:50.325Z,1824
2022-08-04T07:51:50.959Z,1700
2022-08-04T07:53:59.626Z,1312
2022-08-04T07:54:47.916Z,1248
2022-08-04T07:55:48.420Z,1228
2022-08-04T07:56:48.408Z,1212
2022-08-04T07:57:52.530Z,1196
2022-08-04T07:58:50.588Z,1240
2022-08-04T07:59:55.708Z,1272
2022-08-04T08:00:52.267Z,1256
2022-08-04T08:01:52.642Z,1280
2022-08-04T08:02:52.972Z,1252
2022-08-04T08:03:53.323Z,1292
2022-08-04T08:04:53.963Z,1316
2022-08-04T08:06:48.971Z,1464
2022-08-04T08:07:05.405Z,1480
2022-08-04T08:08:06.673Z,1676
2022-08-04T08:09:19.975Z,2160
2022-08-04T08:10:08.214Z,2092
2022-08-04T08:11:08.150Z,2208
2022-08-04T08:13:01.424Z,2064
2022-08-04T08:13:18.060Z,2044
2022-08-04T08:14:19.340Z,1952
2022-08-04T08:15:22.002Z,2316
2022-08-04T08:16:20.514Z,2424
2022-08-04T08:17:20.698Z,2836
2022-08-04T08:18:21.063Z,3420
2022-08-04T08:19:21.999Z,3720
2022-08-04T08:20:40.268Z,3124
2022-08-04T08:21:22.901Z,2592
2022-08-04T08:22:23.821Z,1808
2022-08-04T08:23:28.231Z,1324
2022-08-04T08:24:25.437Z,1176
2022-08-04T08:25:26.506Z,1108
2022-08-04T08:26:26.758Z,1076
2022-08-04T08:27:27.975Z,1068
2022-08-04T08:28:27.919Z,1084
2022-08-04T08:29:28.571Z,1072
2022-08-04T08:30:31.221Z,1176
2022-08-04T08:32:10.994Z,1236
2022-08-04T08:32:31.498Z,1244
2022-08-04T08:33:31.747Z,1164
2022-08-04T08:34:38.642Z,1124
2022-08-04T08:35:32.789Z,1072
2022-08-04T08:36:33.203Z,1088
2022-08-04T08:37:35.424Z,1132
2022-08-04T08:38:33.559Z,1144
2022-08-04T08:39:36.459Z,1248
2022-08-04T08:40:51.861Z,1160
2022-08-04T08:41:35.065Z,1208
2022-08-04T08:42:35.699Z,1380
2022-08-04T08:44:43.926Z,1512
2022-08-04T08:45:03.756Z,1572
2022-08-04T08:46:01.214Z,1816
2022-08-04T08:47:01.947Z,2008
2022-08-04T08:48:17.714Z,2364
2022-08-04T08:49:03.646Z,2164
2022-08-04T08:50:13.346Z,2180
2022-08-04T08:51:05.580Z,2456
2022-08-04T08:52:06.508Z,2764
2022-08-04T08:53:13.280Z,3152
2022-08-04T08:54:07.210Z,2896
2022-08-04T08:55:07.840Z,2868
2022-08-04T08:56:08.274Z,3440
2022-08-04T08:57:09.199Z,4060
2022-08-04T08:58:11.979Z,5252
2022-08-04T08:59:13.598Z,7696
2022-08-04T09:00:11.084Z,8580
2022-08-04T09:01:11.328Z,9972
2022-08-04T09:02:12.471Z,10712
2022-08-04T09:03:16.141Z,10740
2022-08-04T09:04:22.934Z,10520
2022-08-04T09:05:14.113Z,10552
2022-08-04T09:06:14.400Z,10304
2022-08-04T09:07:15.038Z,10344
2022-08-04T09:08:16.106Z,10504
2022-08-04T09:09:17.333Z,10580
2022-08-04T09:10:17.746Z,10528
2022-08-04T09:11:20.391Z,10472
2022-08-04T09:12:19.236Z,10328
2022-08-04T09:13:19.767Z,10252
2022-08-04T09:14:19.999Z,10240
2022-08-04T09:15:19.947Z,10492
2022-08-04T09:16:20.699Z,10608
2022-08-04T09:17:21.086Z,10684
2022-08-04T09:18:21.409Z,10944
2022-08-04T09:19:48.847Z,11216
2022-08-04T09:20:21.527Z,11392
2022-08-04T09:21:22.757Z,11252
2022-08-04T09:22:24.121Z,11460
2022-08-04T09:23:23.380Z,11360
2022-08-04T09:24:47.203Z,11348
2022-08-04T09:25:23.587Z,11756
2022-08-04T09:26:24.345Z,12048
2022-08-04T09:27:26.189Z,12276
2022-08-04T09:28:59.937Z,12056
2022-08-04T09:29:26.445Z,11908
2022-08-04T09:30:28.198Z,12064
2022-08-04T09:31:28.433Z,12412
2022-08-04T09:32:28.436Z,12760
2022-08-04T09:33:51.451Z,12936
2022-08-04T09:34:29.680Z,12928
2022-08-04T09:35:29.618Z,12976
2022-08-04T09:36:36.743Z,13048
2022-08-04T09:37:31.298Z,13044
2022-08-04T09:38:31.185Z,13116
2022-08-04T09:39:35.997Z,13080
2022-08-04T09:41:20.594Z,13172
2022-08-04T09:42:05.533Z,13180
2022-08-04T09:43:11.814Z,13180
2022-08-04T09:45:13.479Z,13172
2022-08-04T09:45:57.141Z,13172
2022-08-04T09:46:55.751Z,13208
2022-08-04T09:47:55.821Z,13216
2022-08-04T09:48:56.178Z,13228
2022-08-04T09:49:56.863Z,13236
2022-08-04T09:51:01.937Z,13220
2022-08-04T09:52:09.406Z,13252
2022-08-04T09:52:59.631Z,13152
2022-08-04T09:54:00.897Z,13092
2022-08-04T09:55:01.151Z,13124
2022-08-04T09:56:09.184Z,13084
2022-08-04T09:57:02.438Z,13056
2022-08-04T09:58:02.482Z,13028
2022-08-04T09:59:02.720Z,12988
2022-08-04T10:00:03.235Z,12936
2022-08-04T10:01:02.913Z,12916
2022-08-04T10:02:11.157Z,12852
2022-08-04T10:03:05.165Z,12868
2022-08-04T10:04:05.704Z,12824
2022-08-04T10:05:05.350Z,12788
2022-08-04T10:06:05.996Z,12728
2022-08-04T10:07:06.935Z,12656
2022-08-04T10:08:28.516Z,12656
2022-08-04T10:09:28.761Z,12588
2022-08-04T10:10:28.412Z,12500
2022-08-04T10:11:29.658Z,12488
2022-08-04T10:12:29.346Z,12448
2022-08-04T10:13:30.579Z,12408
2022-08-04T10:14:34.049Z,12428
2022-08-04T10:15:35.819Z,12368
2022-08-04T10:16:33.363Z,12312
2022-08-04T10:17:33.493Z,12328
2022-08-04T10:18:34.359Z,12224
2022-08-04T10:19:34.622Z,12200
2022-08-04T10:21:15.558Z,12068
2022-08-04T10:21:34.716Z,12060
2022-08-04T10:23:17.432Z,11984
2022-08-04T10:24:06.190Z,11960
2022-08-04T10:24:41.122Z,11928
2022-08-04T10:26:17.345Z,11868
2022-08-04T10:26:42.283Z,11884
2022-08-04T10:27:42.807Z,11876
2022-08-04T10:28:43.260Z,11848
2022-08-04T10:29:44.481Z,11796
2022-08-04T10:30:46.795Z,11748
2022-08-04T10:31:44.761Z,11660
2022-08-04T10:32:48.794Z,11596
2022-08-04T10:33:46.776Z,11540
2022-08-04T10:34:46.770Z,11548
2022-08-04T10:35:47.437Z,11532
2022-08-04T10:36:48.950Z,11532
2022-08-04T10:38:12.512Z,11452
2022-08-04T10:39:00.418Z,11432
2022-08-04T10:40:04.877Z,11368
2022-08-04T10:41:02.230Z,11384
2022-08-04T10:42:06.015Z,11328
2022-08-04T10:43:03.958Z,11264
2022-08-04T10:44:06.627Z,11296
2022-08-04T10:45:08.916Z,11264
2022-08-04T10:46:09.425Z,11240
2022-08-04T10:47:06.649Z,11204
2022-08-04T10:48:07.550Z,11192
2022-08-04T10:49:07.422Z,11136
2022-08-04T10:50:07.803Z,11132
2022-08-04T10:51:08.393Z,11104
2022-08-04T10:52:10.501Z,11124
2022-08-04T10:53:10.241Z,11084
2022-08-04T10:54:09.885Z,11104
2022-08-04T10:55:09.805Z,11056
2022-08-04T10:56:18.916Z,11000
2022-08-04T10:57:11.577Z,11004
2022-08-04T10:58:12.147Z,10944
2022-08-04T10:59:12.276Z,10948
2022-08-04T11:00:15.397Z,10920
2022-08-04T11:01:51.247Z,10896
2022-08-04T11:02:22.296Z,10832
2022-08-04T11:03:19.944Z,10784
2022-08-04T11:04:33.560Z,10712
2022-08-04T11:05:20.501Z,10624
2022-08-04T11:06:21.174Z,10492
2022-08-04T11:07:22.086Z,10500
2022-08-04T11:08:27.619Z,10460
2022-08-04T11:09:26.569Z,10456
2022-08-04T11:10:24.905Z,10440
2022-08-04T11:11:24.863Z,10444
2022-08-04T11:12:25.832Z,10484
2022-08-04T11:13:45.130Z,10492
2022-08-04T11:14:27.753Z,10424
2022-08-04T11:15:28.408Z,10340
2022-08-04T11:16:29.339Z,10284
2022-08-04T11:17:29.902Z,10244
2022-08-04T11:18:30.117Z,10208
2022-08-04T11:20:12.544Z,10104
2022-08-04T11:20:51.122Z,10048
2022-08-04T11:21:51.869Z,9996
2022-08-04T11:22:52.090Z,9992
2022-08-04T11:23:52.523Z,9924
2022-08-04T11:24:52.461Z,9852
2022-08-04T11:25:57.935Z,9812
2022-08-04T11:26:54.025Z,9728
2022-08-04T11:27:56.200Z,9696
2022-08-04T11:29:10.068Z,9664
2022-08-04T11:29:58.060Z,9632
2022-08-04T11:30:58.700Z,9584
2022-08-04T11:32:03.307Z,9568
2022-08-04T11:32:59.274Z,9464
2022-08-04T11:34:00.491Z,9428
2022-08-04T11:35:04.062Z,9400
2022-08-04T11:36:02.578Z,9320
2022-08-04T11:37:02.798Z,9232
2022-08-04T11:38:03.764Z,9140
2022-08-04T11:39:03.890Z,9096
2022-08-04T11:40:04.401Z,8992
2022-08-04T11:41:13.798Z,8892
2022-08-04T11:42:05.726Z,8820
2022-08-04T11:43:06.977Z,8752
2022-08-04T11:44:18.576Z,8652
2022-08-04T11:45:09.132Z,8636
2022-08-04T11:46:07.783Z,8560
2022-08-04T11:47:09.115Z,8540
2022-08-04T11:48:09.338Z,8492
2022-08-04T11:49:09.561Z,8440
2022-08-04T11:50:09.826Z,8368
2022-08-04T11:51:12.694Z,8320
2022-08-04T11:52:11.909Z,8264
2022-08-04T11:53:12.757Z,8224
2022-08-04T11:54:13.707Z,8168
2022-08-04T11:55:14.209Z,8124
2022-08-04T11:56:44.071Z,8060
2022-08-04T11:57:15.022Z,8032
2022-08-04T11:58:15.855Z,7992
2022-08-04T11:59:16.071Z,7968
2022-08-04T12:00:18.837Z,7924
2022-08-04T12:01:20.060Z,7912
2022-08-04T12:02:26.783Z,7880
2022-08-04T12:03:19.569Z,7848
2022-08-04T12:04:20.185Z,7804
2022-08-04T12:05:47.231Z,7732
2022-08-04T12:06:21.933Z,7732
2022-08-04T12:07:54.458Z,7676
2022-08-04T12:08:23.782Z,7688
2022-08-04T12:09:23.719Z,7636
2022-08-04T12:10:48.300Z,7608
2022-08-04T12:11:25.528Z,7576
2022-08-04T12:12:26.070Z,7552
2022-08-04T12:13:26.019Z,7532
2022-08-04T12:14:26.961Z,7480
2022-08-04T12:15:26.876Z,7468
2022-08-04T12:16:35.882Z,7424
2022-08-04T12:17:33.701Z,7396
2022-08-04T12:18:30.614Z,7352
2022-08-04T12:19:33.989Z,7344
2022-08-04T12:21:28.415Z,7252
2022-08-04T12:22:40.664Z,7220
2022-08-04T12:23:29.097Z,7192
2022-08-04T12:24:29.714Z,7184
2022-08-04T12:25:29.360Z,7124
2022-08-04T12:26:30.321Z,7128
2022-08-04T12:27:37.237Z,7080
2022-08-04T12:28:37.346Z,7020
2022-08-04T12:29:31.900Z,6936
2022-08-04T12:31:17.391Z,6884
2022-08-04T12:32:05.662Z,6904
2022-08-04T12:33:06.037Z,6892
2022-08-04T12:34:17.056Z,6832
2022-08-04T12:35:08.267Z,6812
2022-08-04T12:36:27.000Z,6780
2022-08-04T12:37:09.209Z,6736
2022-08-04T12:38:08.872Z,6688
2022-08-04T12:39:10.432Z,6652
2022-08-04T12:40:42.385Z,6604
2022-08-04T12:41:11.337Z,6584
2022-08-04T12:42:12.345Z,6564
2022-08-04T12:43:13.239Z,6544
2022-08-04T12:44:43.727Z,6488
2022-08-04T12:45:13.077Z,6472
2022-08-04T12:46:14.080Z,6416
2022-08-04T12:47:38.538Z,6328
2022-08-04T12:48:20.677Z,6308
2022-08-04T12:49:16.430Z,6280
2022-08-04T12:50:17.472Z,6264
2022-08-04T12:52:15.234Z,6200
2022-08-04T12:53:19.267Z,6164
2022-08-04T12:54:16.788Z,6140
2022-08-04T12:55:18.647Z,6116
2022-08-04T12:56:18.604Z,6092
2022-08-04T12:57:20.149Z,6040
2022-08-04T12:58:47.753Z,5976
2022-08-04T12:59:24.035Z,5952
2022-08-04T13:00:23.125Z,5920
2022-08-04T13:02:21.327Z,5848
2022-08-04T13:02:38.560Z,5848
2022-08-04T13:03:39.132Z,5824
2022-08-04T13:04:42.150Z,5800
2022-08-04T13:05:41.510Z,5744
2022-08-04T13:06:40.168Z,5680
2022-08-04T13:07:43.791Z,5692
2022-08-04T13:08:43.726Z,5668
2022-08-04T13:09:42.639Z,5588
2022-08-04T13:10:43.589Z,5564
2022-08-04T13:11:45.617Z,5536
2022-08-04T13:12:45.564Z,5492
2022-08-04T13:13:46.568Z,5464
2022-08-04T13:14:47.036Z,5432
2022-08-04T13:16:12.865Z,5388
2022-08-04T13:16:51.953Z,5360
2022-08-04T13:17:50.701Z,5316
2022-08-04T13:18:51.286Z,5280
2022-08-04T13:19:58.690Z,5256
2022-08-04T13:20:52.812Z,5200
2022-08-04T13:22:13.592Z,5128
2022-08-04T13:22:58.500Z,5088
2022-08-04T13:27:03.485Z,4860
2022-08-04T13:27:27.903Z,4864
2022-08-04T13:28:21.329Z,4760
2022-08-04T13:30:09.203Z,4760
2022-08-04T13:30:35.079Z,4732
2022-08-04T13:31:41.674Z,4672
2022-08-04T13:32:35.352Z,4684
2022-08-04T13:33:36.264Z,4648
2022-08-04T13:34:36.194Z,4636
2022-08-04T13:36:05.673Z,4556
2022-08-04T13:36:53.964Z,4504
2022-08-04T13:37:54.189Z,4420
2022-08-04T13:38:54.585Z,4384
2022-08-04T13:40:06.711Z,4332
2022-08-04T13:40:55.640Z,4304
2022-08-04T13:42:08.138Z,4252
2022-08-04T13:42:57.375Z,4232
2022-08-04T13:44:29.531Z,4128
2022-08-04T13:44:57.463Z,4104
2022-08-04T13:45:58.098Z,4072
2022-08-04T13:47:02.049Z,4048
2022-08-04T13:47:59.441Z,4036
2022-08-04T13:50:15.695Z,3924
2022-08-04T13:50:32.677Z,3912
2022-08-04T13:52:17.476Z,3864
2022-08-04T13:52:34.429Z,3860
2022-08-04T13:53:38.651Z,3852
2022-08-04T13:54:42.536Z,3828
2022-08-04T13:55:35.170Z,3792
2022-08-04T13:56:36.383Z,3716
2022-08-04T13:57:36.819Z,3720
2022-08-04T13:58:40.959Z,3732
2022-08-04T13:59:38.963Z,3728
2022-08-04T14:00:41.489Z,3648
2022-08-04T14:01:53.913Z,3564
2022-08-04T14:02:41.620Z,3468
2022-08-04T14:04:00.197Z,3480
2022-08-04T14:04:42.147Z,3504
2022-08-04T14:06:10.326Z,3432
2022-08-04T14:06:42.705Z,3408
2022-08-04T14:07:44.598Z,3388
2022-08-04T14:08:44.831Z,3364
2022-08-04T14:10:09.849Z,3292
2022-08-04T14:10:45.792Z,3292
2022-08-04T14:12:52.897Z,3172